ADDS METAR Data INFO
IDs: Format: Raw Decoded Include TAF

Data at: 1716 UTC 23 Oct 2017

KUYF 231655Z AUTO 15013G21KT 10SM RA OVC007 18/17 A2975 RMK AO2
KUYF 231635Z AUTO 14012G21KT 10SM RA OVC007 17/16 A2977 RMK AO2
KUYF 231615Z AUTO 13012KT 7SM RA OVC007 17/16 A2978 RMK AO2
KUYF 231555Z AUTO 15011G16KT 3SM RA BKN009 BKN013 OVC020 17/16 A2980 RMK AO2
KUYF 231535Z AUTO 15011G20KT 5SM +RA BKN019 BKN050 OVC100 17/16 A2983 RMK AO2
KUYF 231515Z AUTO 13013G18KT 10SM -RA SCT070 BKN090 OVC110 17/16 A2983 RMK AO2
KUYF 231455Z AUTO 12012KT 10SM RA SCT060 SCT070 OVC100 17/15 A2983 RMK AO2
KUYF 231435Z AUTO 12012KT 10SM -RA BKN060 OVC075 17/15 A2985 RMK AO2
KUYF 231415Z AUTO 12012KT 10SM -RA BKN060 BKN070 OVC120 17/15 A2986 RMK AO2
KUYF 231355Z AUTO 13012KT 10SM SCT060 BKN070 BKN120 18/13 A2987 RMK AO2
KUYF 231335Z AUTO 12012KT 10SM BKN070 BKN080 BKN110 18/13 A2987 RMK AO2
KUYF 231315Z AUTO 12009KT 10SM SCT055 SCT065 BKN080 17/12 A2989 RMK AO2
KUYF 231255Z AUTO 11006KT 10SM SCT055 SCT080 SCT100 16/12 A2989 RMK AO2
KUYF 231235Z AUTO 10004KT 10SM SCT080 16/12 A2989 RMK AO2
KUYF 231215Z AUTO 10005KT 10SM BKN090 16/12 A2990 RMK AO2
KUYF 231155Z AUTO 13005KT 10SM SCT090 16/12 A2992 RMK AO2
KUYF 231135Z AUTO 13005KT 10SM SCT070 BKN090 16/12 A2992 RMK AO2
KUYF 231115Z AUTO 14006KT 10SM SCT070 16/12 A2993 RMK AO2
KUYF 231055Z AUTO 13007KT 10SM CLR 16/12 A2994 RMK AO2
KUYF 231035Z AUTO 13008KT 10SM BKN055 16/12 A2995 RMK AO2
KUYF 231015Z AUTO 13008KT 10SM BKN055 16/12 A2995 RMK AO2
KUYF 230955Z AUTO 13007KT 10SM SCT055 16/12 A2996 RMK AO2
KUYF 230935Z AUTO 14008KT 10SM SCT055 16/12 A2996 RMK AO2
KUYF 230915Z AUTO 14006KT 10SM CLR 17/12 A2998 RMK AO2
KUYF 230855Z AUTO 14007KT 10SM CLR 17/11 A2999 RMK AO2
KUYF 230835Z AUTO 14007KT 10SM CLR 17/11 A2999 RMK AO2
KUYF 230815Z AUTO 14008KT 10SM SCT055 17/11 A3000 RMK AO2
KUYF 230755Z AUTO 15006KT 10SM SCT055 17/11 A3000 RMK AO2
KUYF 230735Z AUTO 14007KT 10SM SCT055 17/11 A3001 RMK AO2
KUYF 230715Z AUTO 14009KT 10SM CLR 17/11 A3002 RMK AO2
KUYF 230655Z AUTO 14009KT 10SM CLR 17/11 A3002 RMK AO2
KUYF 230635Z AUTO 13007KT 10SM CLR 17/11 A3002 RMK AO2
KUYF 230615Z AUTO 15006KT 10SM CLR 17/11 A3004 RMK AO2
KUYF 230555Z AUTO 15004KT 10SM CLR 17/10 A3003 RMK AO2
KUYF 230535Z AUTO 15003KT 10SM CLR 17/10 A3004 RMK AO2
KUYF 230515Z AUTO 13005KT 10SM CLR 17/11 A3003 RMK AO2
KUYF 230455Z AUTO 14006KT 10SM CLR 16/10 A3004 RMK AO2
KUYF 230435Z AUTO 14006KT 10SM CLR 17/10 A3005 RMK AO2
KUYF 230415Z AUTO 14006KT 10SM CLR 16/10 A3006 RMK AO2
KUYF 230355Z AUTO 14005KT 10SM CLR 16/10 A3007 RMK AO2
KUYF 230335Z AUTO 00000KT 10SM CLR 17/09 A3007 RMK AO2
KUYF 230315Z AUTO 14004KT 10SM CLR 17/09 A3008 RMK AO2
KUYF 230255Z AUTO 14004KT 10SM CLR 17/09 A3008 RMK AO2
KUYF 230235Z AUTO 15003KT 10SM CLR 17/09 A3009 RMK AO2
KUYF 230215Z AUTO 16003KT 10SM CLR 17/09 A3010 RMK AO2
KUYF 230155Z AUTO 17006KT 10SM CLR 17/09 A3010 RMK AO2
KUYF 230135Z AUTO 17005KT 10SM CLR 17/09 A3011 RMK AO2
KUYF 230115Z AUTO 17005KT 10SM CLR 17/09 A3011 RMK AO2
KUYF 230055Z AUTO 17006KT 10SM CLR 18/09 A3012 RMK AO2
KUYF 230035Z AUTO 16004KT 10SM CLR 18/08 A3012 RMK AO2
KUYF 230015Z AUTO 17005KT 10SM CLR 18/08 A3012 RMK AO2
KUYF 222355Z AUTO 16003KT 10SM CLR 19/08 A3012 RMK AO2
KUYF 222335Z AUTO 16003KT 10SM CLR 20/09 A3012 RMK AO2
KUYF 222315Z AUTO 15004KT 10SM CLR 20/09 A3012 RMK AO2
KUYF 222255Z AUTO 15004KT 10SM CLR 20/09 A3012 RMK AO2
KUYF 222235Z AUTO 16004KT 10SM CLR 21/07 A3012 RMK AO2
KUYF 222215Z AUTO 18008KT 10SM CLR 22/07 A3013 RMK AO2
KUYF 222155Z AUTO 18011KT 10SM CLR 23/06 A3013 RMK AO2
KUYF 222135Z AUTO 18013G19KT 10SM CLR 24/05 A3014 RMK AO2
KUYF 222115Z AUTO 18013G21KT 10SM CLR 25/06 A3014 RMK AO2
KUYF 222055Z AUTO 18010KT 10SM CLR 24/08 A3014 RMK AO2
KUYF 222035Z AUTO 19012G17KT 10SM CLR 24/07 A3014 RMK AO2
KUYF 222015Z AUTO 18014KT 10SM CLR 24/08 A3013 RMK AO2
KUYF 221955Z AUTO 18010KT 10SM CLR 24/10 A3012 RMK AO2
KUYF 221935Z AUTO 17013KT 10SM CLR 25/10 A3012 RMK AO2
KUYF 221915Z AUTO 18011G16KT 10SM CLR 25/11 A3013 RMK AO2
KUYF 221855Z AUTO 17011G19KT 10SM CLR 26/11 A3013 RMK AO2
KUYF 221835Z AUTO 17015G20KT 10SM CLR 26/11 A3014 RMK AO2
KUYF 221815Z AUTO 19014G18KT 10SM CLR 26/11 A3016 RMK AO2
KUYF 221755Z AUTO 18013G17KT 10SM CLR 26/11 A3017 RMK AO2
KUYF 221735Z AUTO 21014G18KT 10SM CLR 26/11 A3018 RMK AO2
KUYF 221715Z AUTO 20014G21KT 10SM CLR 25/11 A3019 RMK AO2
KUYF 221655Z AUTO 19013G20KT 10SM CLR 25/11 A3020 RMK AO2
KUYF 221635Z AUTO 21012G20KT 10SM CLR 25/11 A3021 RMK AO2
KUYF 221615Z AUTO 19014G19KT 10SM CLR 24/11 A3022 RMK AO2
KUYF 221555Z AUTO 20014G20KT 10SM CLR 23/10 A3022 RMK AO2
KUYF 221535Z AUTO 18012G17KT 10SM CLR 23/10 A3022 RMK AO2
KUYF 221515Z AUTO 18009KT 10SM CLR 21/11 A3023 RMK AO2
KUYF 221455Z AUTO 18011G16KT 10SM CLR 20/11 A3023 RMK AO2
KUYF 221435Z AUTO 17009KT 10SM CLR 19/11 A3023 RMK AO2
KUYF 221415Z AUTO 17007KT 10SM SCT035 18/12 A3024 RMK AO2
KUYF 221355Z AUTO 17006KT 10SM SCT035 17/12 A3024 RMK AO2
KUYF 221335Z AUTO 18006KT 10SM CLR 15/12 A3024 RMK AO2
KUYF 221315Z AUTO 17007KT 10SM CLR 15/12 A3023 RMK AO2
KUYF 221255Z AUTO 16003KT 10SM CLR 14/12 A3022 RMK AO2
KUYF 221235Z AUTO 16003KT 10SM CLR 13/12 A3022 RMK AO2
KUYF 221215Z AUTO 00000KT 10SM CLR 12/11 A3022 RMK AO2
KUYF 221155Z AUTO 17006KT 10SM CLR 11/10 A3022 RMK AO2
KUYF 221135Z AUTO 16004KT 10SM CLR 11/10 A3021 RMK AO2
KUYF 221115Z AUTO 00000KT 10SM CLR 11/10 A3021 RMK AO2
KUYF 221055Z AUTO 14005KT 10SM CLR 10/09 A3021 RMK AO2
KUYF 221035Z AUTO 00000KT 10SM CLR 10/09 A3021 RMK AO2
KUYF 221015Z AUTO 12004KT 7SM CLR 09/08 A3021 RMK AO2
KUYF 220955Z AUTO 00000KT 10SM CLR 10/09 A3021 RMK AO2
KUYF 220935Z AUTO 00000KT 10SM CLR 11/10 A3021 RMK AO2
KUYF 220915Z AUTO 00000KT 10SM CLR 10/09 A3020 RMK AO2
KUYF 220855Z AUTO 00000KT 10SM CLR 11/10 A3021 RMK AO2
KUYF 220835Z AUTO 00000KT 10SM CLR 11/10 A3020 RMK AO2
KUYF 220815Z AUTO 17003KT 10SM CLR 11/10 A3020 RMK AO2
KUYF 220755Z AUTO 18003KT 10SM CLR 11/10 A3020 RMK AO2
KUYF 220735Z AUTO 00000KT 10SM CLR 11/10 A3021 RMK AO2
KUYF 220715Z AUTO 18004KT 10SM CLR 11/10 A3022 RMK AO2
KUYF 220655Z AUTO 21006KT 10SM CLR 11/10 A3021 RMK AO2
KUYF 220635Z AUTO 23006KT 10SM CLR 11/10 A3021 RMK AO2
KUYF 220615Z AUTO 21005KT 10SM CLR 11/09 A3020 RMK AO2
KUYF 220555Z AUTO 20003KT 10SM CLR 11/10 A3020 RMK AO2
KUYF 220535Z AUTO 20003KT 10SM CLR 11/10 A3020 RMK AO2